createdAt,value
2019-03-23T00:00:25.641Z,140.60
2019-03-23T00:02:32.662Z,157.40
2019-03-23T00:04:36.498Z,147.07
2019-03-23T00:06:40.308Z,156.67
2019-03-23T00:08:44.247Z,151.05
2019-03-23T00:10:48.088Z,146.22
2019-03-23T00:12:51.918Z,146.65
2019-03-23T00:14:55.882Z,152.85
2019-03-23T00:16:59.702Z,166.00
2019-03-23T00:19:03.586Z,148.93
2019-03-23T00:21:07.454Z,147.95
2019-03-23T00:23:11.446Z,162.00
2019-03-23T00:25:15.331Z,154.97
2019-03-23T00:27:19.201Z,149.85
2019-03-23T00:29:23.074Z,148.55
2019-03-23T00:31:26.899Z,158.07
2019-03-23T00:33:30.841Z,153.95
2019-03-23T00:35:34.639Z,152.07
2019-03-23T00:37:38.556Z,153.15
2019-03-23T00:39:42.408Z,145.00
2019-03-23T00:41:46.319Z,149.38
2019-03-23T00:43:50.373Z,147.47
2019-03-23T00:45:54.295Z,145.32
2019-03-23T00:47:58.228Z,145.87
2019-03-23T00:50:02.065Z,149.45
2019-03-23T00:52:05.950Z,146.32
2019-03-23T00:54:09.875Z,153.82
2019-03-23T00:56:13.698Z,148.68
2019-03-23T00:58:17.675Z,154.95
2019-03-23T01:00:21.566Z,154.70
2019-03-23T01:02:25.417Z,146.65
2019-03-23T01:04:29.347Z,146.75
2019-03-23T01:06:33.248Z,130.40
2019-03-23T01:08:37.054Z,149.97
2019-03-23T01:10:40.906Z,139.28
2019-03-23T01:12:44.787Z,130.50
2019-03-23T01:14:48.631Z,141.65
2019-03-23T01:16:52.575Z,140.43
2019-03-23T01:18:56.380Z,133.63
2019-03-23T01:21:00.253Z,133.43
2019-03-23T01:23:04.221Z,147.85
2019-03-23T01:25:10.269Z,141.73
2019-03-23T01:27:14.144Z,143.02
2019-03-23T01:29:18.070Z,147.00
2019-03-23T01:31:21.882Z,163.75
2019-03-23T01:33:25.765Z,151.60
2019-03-23T01:35:29.604Z,154.78
2019-03-23T01:37:33.484Z,165.12
2019-03-23T01:39:37.313Z,154.78
2019-03-23T01:41:41.262Z,145.70
2019-03-23T01:43:45.190Z,144.70
2019-03-23T01:45:49.020Z,146.60
2019-03-23T01:47:52.890Z,151.15
2019-03-23T01:49:56.814Z,144.28
2019-03-23T01:52:00.683Z,149.12
2019-03-23T01:54:04.646Z,148.15
2019-03-23T01:56:08.581Z,164.70
2019-03-23T01:58:12.485Z,139.00
2019-03-23T02:02:42.495Z,143.97
2019-03-23T02:04:46.363Z,145.40
2019-03-23T02:06:50.243Z,150.15
2019-03-23T02:08:54.155Z,148.10
2019-03-23T02:10:58.032Z,151.22
2019-03-23T02:13:01.890Z,140.47
2019-03-23T02:15:08.151Z,143.70
2019-03-23T02:17:11.982Z,135.30
2019-03-23T02:19:15.895Z,175.05
2019-03-23T02:21:19.789Z,165.62
2019-03-23T02:23:23.603Z,135.45
2019-03-23T02:25:27.456Z,139.45
2019-03-23T02:27:31.683Z,154.63
2019-03-23T02:29:35.525Z,141.40
2019-03-23T02:31:39.381Z,135.97
2019-03-23T02:33:43.327Z,140.18
2019-03-23T02:35:47.221Z,153.78
2019-03-23T02:37:51.032Z,140.60
2019-03-23T02:39:54.901Z,125.67
2019-03-23T02:41:58.791Z,128.97
2019-03-23T02:44:02.666Z,131.03
2019-03-23T02:46:06.574Z,132.37
2019-03-23T02:48:10.463Z,136.40
2019-03-23T02:50:14.410Z,129.23
2019-03-23T02:52:18.290Z,127.07
2019-03-23T02:54:22.192Z,139.62
2019-03-23T02:56:26.025Z,119.55
2019-03-23T02:58:29.927Z,128.82
2019-03-23T03:00:33.728Z,131.32
2019-03-23T03:02:37.621Z,131.27
2019-03-23T03:04:41.576Z,134.25
2019-03-23T03:06:45.770Z,131.22
2019-03-23T03:08:49.611Z,130.35
2019-03-23T03:10:53.484Z,124.20
2019-03-23T03:12:57.366Z,129.32
2019-03-23T03:15:01.164Z,155.32
2019-03-23T03:17:05.104Z,142.87
2019-03-23T03:19:08.967Z,135.93
2019-03-23T03:21:12.770Z,122.90
2019-03-23T03:23:16.710Z,125.18
2019-03-23T03:25:20.619Z,132.97
2019-03-23T03:27:24.443Z,133.50
2019-03-23T03:29:28.394Z,157.30
2019-03-23T03:31:32.226Z,127.07
2019-03-23T03:33:36.076Z,133.07
2019-03-23T03:35:39.928Z,126.87
2019-03-23T03:37:55.783Z,126.90
2019-03-23T03:39:49.348Z,125.70
2019-03-23T03:41:53.230Z,142.87
2019-03-23T03:43:57.059Z,133.10
2019-03-23T03:46:01.020Z,124.75
2019-03-23T03:48:05.021Z,135.93
2019-03-23T03:50:09.463Z,136.52
2019-03-23T03:52:13.670Z,137.25
2019-03-23T03:54:17.547Z,129.07
2019-03-23T03:56:21.454Z,119.53
2019-03-23T03:58:25.398Z,117.90
2019-03-23T04:00:29.311Z,122.53
2019-03-23T04:02:33.195Z,120.20
2019-03-23T04:04:37.087Z,133.07
2019-03-23T04:06:41.141Z,127.92
2019-03-23T04:08:45.027Z,132.18
2019-03-23T04:10:48.861Z,130.10
2019-03-23T04:12:52.818Z,128.27
2019-03-23T04:14:56.687Z,118.65
2019-03-23T04:17:00.585Z,121.95
2019-03-23T04:19:04.485Z,133.60
2019-03-23T04:21:08.323Z,116.65
2019-03-23T04:23:12.134Z,119.00
2019-03-23T04:25:16.099Z,126.33
2019-03-23T04:27:20.022Z,114.57
2019-03-23T04:29:23.891Z,131.65
2019-03-23T04:31:27.767Z,124.70
2019-03-23T04:33:31.644Z,126.27
2019-03-23T04:35:35.493Z,135.55
2019-03-23T04:37:39.430Z,117.97
2019-03-23T04:39:43.303Z,143.87
2019-03-23T04:41:47.193Z,119.20
2019-03-23T04:43:51.038Z,124.18
2019-03-23T04:45:54.906Z,108.47
2019-03-23T04:47:58.828Z,124.78
2019-03-23T04:50:02.691Z,124.47
2019-03-23T04:52:06.544Z,140.57
2019-03-23T04:54:10.431Z,126.60
2019-03-23T04:56:14.385Z,125.85
2019-03-23T04:58:18.221Z,124.27
2019-03-23T05:00:22.076Z,132.95
2019-03-23T05:02:25.968Z,131.45
2019-03-23T05:04:29.810Z,126.47
2019-03-23T05:06:33.684Z,131.35
2019-03-23T05:08:37.603Z,132.12
2019-03-23T05:10:41.514Z,126.80
2019-03-23T05:12:45.377Z,141.70
2019-03-23T05:14:49.312Z,120.82
2019-03-23T05:16:53.150Z,126.50
2019-03-23T05:18:56.997Z,131.97
2019-03-23T05:21:00.889Z,138.72
2019-03-23T05:23:04.754Z,138.80
2019-03-23T05:25:11.607Z,135.37
2019-03-23T05:27:15.506Z,124.33
2019-03-23T05:29:19.383Z,123.02
2019-03-23T05:31:23.263Z,136.60
2019-03-23T05:33:27.563Z,136.35
2019-03-23T05:35:31.414Z,128.78
2019-03-23T05:37:35.217Z,126.55
2019-03-23T05:39:39.174Z,136.30
2019-03-23T05:41:43.001Z,120.92
2019-03-23T05:43:46.963Z,122.58
2019-03-23T05:45:50.832Z,122.87
2019-03-23T05:47:54.751Z,125.50
2019-03-23T05:49:58.636Z,120.45
2019-03-23T05:52:02.514Z,124.38
2019-03-23T05:54:06.378Z,126.40
2019-03-23T05:56:10.260Z,123.97
2019-03-23T05:58:14.113Z,130.00
2019-03-23T06:00:19.020Z,125.50
2019-03-23T06:02:22.848Z,128.27
2019-03-23T06:04:26.731Z,126.30
2019-03-23T06:06:30.623Z,164.72
2019-03-23T06:08:34.468Z,143.30
2019-03-23T06:10:38.407Z,146.07
2019-03-23T06:12:42.219Z,141.20
2019-03-23T06:14:46.168Z,135.57
2019-03-23T06:16:50.041Z,141.65
2019-03-23T06:18:53.890Z,136.22
2019-03-23T06:20:57.803Z,159.70
2019-03-23T06:23:01.657Z,146.37
2019-03-23T06:25:06.910Z,173.40
2019-03-23T06:27:10.799Z,145.60
2019-03-23T06:29:14.747Z,154.93
2019-03-23T06:31:18.560Z,165.10
2019-03-23T06:33:22.439Z,157.32
2019-03-23T06:35:26.280Z,156.37
2019-03-23T06:37:30.164Z,164.28
2019-03-23T06:39:34.029Z,180.30
2019-03-23T06:41:37.939Z,198.93
2019-03-23T06:43:41.906Z,188.05
2019-03-23T06:45:45.840Z,177.90
2019-03-23T06:47:49.665Z,192.32
2019-03-23T06:49:53.506Z,178.97
2019-03-23T06:51:57.394Z,184.07
2019-03-23T06:54:01.277Z,190.22
2019-03-23T06:56:05.149Z,183.72
2019-03-23T06:58:09.012Z,188.03
2019-03-23T07:00:15.153Z,183.27
2019-03-23T07:02:19.029Z,199.50
2019-03-23T07:04:22.930Z,169.50
2019-03-23T07:06:26.895Z,189.00
2019-03-23T07:08:32.413Z,177.97
2019-03-23T07:10:36.386Z,194.15
2019-03-23T07:12:40.222Z,205.65
2019-03-23T07:14:44.023Z,189.52
2019-03-23T07:16:47.943Z,174.00
2019-03-23T07:18:51.771Z,183.25
2019-03-23T07:20:55.635Z,183.35
2019-03-23T07:22:59.559Z,190.05
2019-03-23T07:25:03.999Z,177.10
2019-03-23T07:27:07.835Z,176.25
2019-03-23T07:29:11.841Z,178.72
2019-03-23T07:31:15.734Z,176.42
2019-03-23T07:33:19.554Z,175.15
2019-03-23T07:35:23.648Z,176.82
2019-03-23T07:37:27.550Z,167.37
2019-03-23T07:39:50.678Z,160.57
2019-03-23T07:41:57.849Z,158.22
2019-03-23T07:44:01.698Z,156.00
2019-03-23T07:46:05.577Z,155.18
2019-03-23T07:48:09.593Z,150.70
2019-03-23T07:50:15.029Z,148.97
2019-03-23T07:52:18.847Z,144.07
2019-03-23T07:54:22.733Z,140.77
2019-03-23T07:56:26.643Z,139.70
2019-03-23T07:58:30.499Z,139.95
2019-03-23T08:00:34.762Z,130.00
2019-03-23T08:02:38.610Z,123.67
2019-03-23T08:04:42.436Z,125.12
2019-03-23T08:06:46.348Z,127.02
2019-03-23T08:08:50.241Z,123.80
2019-03-23T08:10:54.096Z,119.35
2019-03-23T08:12:58.291Z,123.85
2019-03-23T08:15:02.225Z,119.60
2019-03-23T08:17:06.086Z,116.37
2019-03-23T08:19:09.914Z,116.12
2019-03-23T08:21:13.849Z,118.72
2019-03-23T08:23:17.665Z,113.80
2019-03-23T08:25:21.682Z,116.77
2019-03-23T08:27:25.542Z,119.33
2019-03-23T08:29:29.410Z,113.37
2019-03-23T08:31:33.297Z,108.52
2019-03-23T08:33:37.143Z,109.52
2019-03-23T08:35:41.001Z,107.58
2019-03-23T08:37:44.987Z,109.52
2019-03-23T08:39:48.940Z,106.60
2019-03-23T08:41:52.811Z,101.90
2019-03-23T08:43:56.682Z,101.58
2019-03-23T08:46:00.551Z,103.12
2019-03-23T08:48:04.386Z,103.35
2019-03-23T08:50:09.205Z,102.30
2019-03-23T08:52:13.047Z,96.92
2019-03-23T08:54:17.202Z,96.20
2019-03-23T08:56:21.233Z,95.00
2019-03-23T08:58:30.213Z,93.40
2019-03-23T09:00:34.057Z,100.25
2019-03-23T09:02:37.975Z,94.22
2019-03-23T09:04:41.919Z,98.97
2019-03-23T09:06:45.894Z,83.97
2019-03-23T09:08:50.159Z,89.20
2019-03-23T09:10:54.145Z,87.97
2019-03-23T09:12:58.010Z,88.27
2019-03-23T09:15:08.870Z,86.55
2019-03-23T09:17:12.736Z,87.15
2019-03-23T09:19:16.782Z,82.45
2019-03-23T09:21:20.780Z,83.72
2019-03-23T09:23:27.951Z,81.82
2019-03-23T09:25:31.792Z,85.72
2019-03-23T09:27:35.772Z,74.92
2019-03-23T09:29:39.736Z,81.80
2019-03-23T09:31:46.489Z,78.72
2019-03-23T09:33:49.889Z,82.67
2019-03-23T09:35:53.910Z,75.90
2019-03-23T09:37:57.748Z,78.45
2019-03-23T09:40:10.015Z,76.50
2019-03-23T09:42:07.293Z,75.32
2019-03-23T09:44:11.238Z,71.82
2019-03-23T09:46:15.199Z,71.40
2019-03-23T09:48:19.490Z,73.65
2019-03-23T09:50:23.333Z,73.85
2019-03-23T09:52:27.388Z,72.00
2019-03-23T09:54:31.938Z,69.40
2019-03-23T09:56:35.941Z,71.85
2019-03-23T09:58:39.894Z,66.15
2019-03-23T10:00:43.778Z,68.42
2019-03-23T10:02:47.741Z,73.57
2019-03-23T10:04:51.742Z,73.02
2019-03-23T10:06:55.777Z,77.92
2019-03-23T10:08:59.811Z,75.20
2019-03-23T10:11:03.795Z,77.50
2019-03-23T10:13:07.713Z,76.47
2019-03-23T10:15:11.870Z,74.10
2019-03-23T10:17:15.851Z,83.27
2019-03-23T10:19:19.945Z,79.32
2019-03-23T10:21:23.797Z,72.92
2019-03-23T10:23:27.768Z,75.85
2019-03-23T10:25:31.709Z,77.65
2019-03-23T10:27:35.724Z,71.20
2019-03-23T10:29:39.778Z,75.87
2019-03-23T10:31:43.710Z,70.83
2019-03-23T10:33:47.593Z,75.32
2019-03-23T10:35:51.538Z,73.42
2019-03-23T10:37:55.508Z,70.37
2019-03-23T10:39:59.490Z,76.22
2019-03-23T10:42:03.455Z,75.95
2019-03-23T10:44:07.338Z,70.80
2019-03-23T10:46:11.191Z,69.27
2019-03-23T10:48:15.067Z,68.05
2019-03-23T10:50:18.965Z,63.65
2019-03-23T10:52:22.993Z,63.33
2019-03-23T10:54:29.197Z,54.65
2019-03-23T10:56:33.245Z,59.00
2019-03-23T10:58:37.838Z,62.40
2019-03-23T11:00:41.731Z,59.30
2019-03-23T11:02:45.606Z,58.13
2019-03-23T11:04:49.450Z,55.10
2019-03-23T11:06:53.302Z,59.40
2019-03-23T11:08:57.248Z,57.25
2019-03-23T11:11:01.063Z,55.35
2019-03-23T11:13:04.966Z,57.20
2019-03-23T11:15:09.428Z,51.90
2019-03-23T11:17:13.270Z,51.10
2019-03-23T11:19:17.202Z,55.43
2019-03-23T11:21:21.099Z,56.83
2019-03-23T11:23:25.006Z,46.75
2019-03-23T11:25:28.862Z,48.90
2019-03-23T11:27:32.781Z,48.17
2019-03-23T11:29:36.644Z,54.77
2019-03-23T11:31:40.578Z,49.80
2019-03-23T11:33:44.433Z,60.00
2019-03-23T11:35:57.505Z,58.13
2019-03-23T11:37:54.039Z,52.70
2019-03-23T11:39:58.113Z,34.43
2019-03-23T11:42:01.915Z,36.33
2019-03-23T11:44:06.068Z,36.38
2019-03-23T11:46:09.907Z,53.50
2019-03-23T11:48:13.826Z,51.15
2019-03-23T11:50:18.156Z,45.65
2019-03-23T11:52:22.256Z,47.35
2019-03-23T11:54:26.125Z,36.53
2019-03-23T11:56:30.530Z,29.57
2019-03-23T11:58:34.836Z,26.93
2019-03-23T12:00:41.954Z,25.27
2019-03-23T12:02:45.831Z,27.27
2019-03-23T12:04:51.211Z,27.52
2019-03-23T12:06:55.099Z,36.53
2019-03-23T12:08:58.985Z,39.33
2019-03-23T12:11:03.323Z,29.12
2019-03-23T12:13:07.339Z,26.07
2019-03-23T12:15:12.821Z,28.12
2019-03-23T12:17:16.740Z,26.75
2019-03-23T12:19:20.646Z,31.50
2019-03-23T12:21:24.474Z,30.60
2019-03-23T12:23:28.316Z,27.52
2019-03-23T12:25:32.317Z,25.90
2019-03-23T12:27:36.204Z,28.38
2019-03-23T12:29:40.068Z,24.32
2019-03-23T12:31:43.913Z,25.55
2019-03-23T12:33:47.804Z,26.20
2019-03-23T12:35:51.654Z,26.68
2019-03-23T12:37:55.487Z,27.05
2019-03-23T12:39:59.457Z,27.10
2019-03-23T12:42:03.282Z,22.60
2019-03-23T12:44:07.461Z,23.50
2019-03-23T12:46:11.409Z,26.60
2019-03-23T12:48:15.577Z,26.65
2019-03-23T12:50:19.418Z,23.92
2019-03-23T12:52:23.341Z,21.05
2019-03-23T12:54:27.239Z,21.52
2019-03-23T12:56:31.079Z,23.67
2019-03-23T12:58:34.971Z,23.80
2019-03-23T13:00:38.879Z,24.30
2019-03-23T13:02:42.747Z,24.50
2019-03-23T13:04:46.610Z,23.25
2019-03-23T13:06:50.459Z,20.90
2019-03-23T13:08:54.403Z,21.33
2019-03-23T13:10:58.246Z,22.32
2019-03-23T13:13:02.116Z,21.15
2019-03-23T13:15:07.439Z,22.40
2019-03-23T13:17:13.779Z,20.82
2019-03-23T13:19:17.671Z,23.52
2019-03-23T13:21:21.554Z,20.23
2019-03-23T13:23:25.435Z,25.20
2019-03-23T13:25:29.308Z,20.90
2019-03-23T13:27:33.220Z,21.70
2019-03-23T13:29:37.097Z,20.43
2019-03-23T13:31:40.942Z,21.85
2019-03-23T13:33:44.882Z,19.50
2019-03-23T13:35:48.738Z,20.27
2019-03-23T13:37:54.499Z,21.48
2019-03-23T13:39:58.187Z,19.07
2019-03-23T13:42:02.064Z,21.90
2019-03-23T13:44:05.937Z,20.40
2019-03-23T13:46:09.885Z,17.37
2019-03-23T13:48:13.774Z,20.77
2019-03-23T13:50:28.874Z,19.90
2019-03-23T13:52:32.977Z,18.37
2019-03-23T13:54:36.813Z,20.40
2019-03-23T13:56:40.719Z,19.98
2019-03-23T13:58:44.722Z,23.00
2019-03-23T14:00:48.601Z,28.32
2019-03-23T14:02:52.448Z,23.52
2019-03-23T14:04:56.371Z,18.65
2019-03-23T14:07:00.221Z,17.42
2019-03-23T14:09:05.099Z,17.57
2019-03-23T14:11:09.029Z,23.38
2019-03-23T14:13:12.915Z,21.68
2019-03-23T14:15:16.765Z,22.95
2019-03-23T14:17:20.665Z,23.25
2019-03-23T14:19:24.530Z,27.70
2019-03-23T14:21:28.359Z,23.45
2019-03-23T14:23:32.395Z,19.30
2019-03-23T14:25:36.241Z,19.95
2019-03-23T14:27:40.118Z,18.95
2019-03-23T14:29:45.495Z,17.40
2019-03-23T14:31:49.588Z,22.65
2019-03-23T14:33:53.463Z,21.60
2019-03-23T14:35:57.410Z,29.00
2019-03-23T14:38:01.271Z,30.50
2019-03-23T14:40:06.987Z,31.60
2019-03-23T14:42:10.955Z,25.80
2019-03-23T14:44:14.820Z,26.97
2019-03-23T14:46:18.692Z,18.82
2019-03-23T14:48:22.606Z,18.07
2019-03-23T14:50:26.456Z,16.95
2019-03-23T14:52:30.295Z,17.10
2019-03-23T14:54:34.212Z,13.38
2019-03-23T14:56:38.052Z,14.90
2019-03-23T14:58:41.902Z,15.55
2019-03-23T15:00:45.793Z,17.07
2019-03-23T15:02:49.829Z,13.25
2019-03-23T15:04:53.663Z,14.63
2019-03-23T15:06:57.575Z,15.68
2019-03-23T15:09:01.418Z,16.23
2019-03-23T15:11:05.258Z,14.70
2019-03-23T15:13:09.155Z,15.32
2019-03-23T15:15:13.237Z,13.20
2019-03-23T15:17:17.155Z,15.50
2019-03-23T15:19:21.109Z,15.75
2019-03-23T15:21:24.978Z,19.32
2019-03-23T15:23:28.823Z,17.45
2019-03-23T15:25:32.702Z,17.37
2019-03-23T15:27:36.521Z,16.12
2019-03-23T15:29:40.501Z,15.98
2019-03-23T15:31:44.442Z,16.35
2019-03-23T15:33:48.269Z,18.87
2019-03-23T15:35:52.199Z,19.17
2019-03-23T15:37:56.118Z,18.15
2019-03-23T15:40:00.028Z,20.27
2019-03-23T15:42:03.918Z,16.62
2019-03-23T15:44:07.891Z,22.10
2019-03-23T15:46:11.770Z,15.90
2019-03-23T15:48:15.732Z,14.28
2019-03-23T15:50:19.570Z,17.95
2019-03-23T15:52:23.802Z,16.95
2019-03-23T15:54:27.722Z,14.87
2019-03-23T15:56:31.570Z,14.70
2019-03-23T15:58:35.432Z,15.55
2019-03-23T16:00:39.284Z,16.95
2019-03-23T16:02:43.207Z,15.40
2019-03-23T16:04:47.128Z,16.77
2019-03-23T16:06:51.022Z,16.77
2019-03-23T16:08:55.219Z,17.82
2019-03-23T16:10:59.020Z,24.30
2019-03-23T16:13:02.992Z,20.68
2019-03-23T16:15:11.663Z,19.65
2019-03-23T16:17:15.467Z,22.27
2019-03-23T16:19:19.388Z,21.27
2019-03-23T16:21:23.320Z,19.32
2019-03-23T16:23:27.498Z,21.30
2019-03-23T16:25:31.269Z,21.68
2019-03-23T16:27:35.114Z,23.15
2019-03-23T16:29:38.954Z,24.32
2019-03-23T16:31:42.959Z,19.35
2019-03-23T16:33:46.796Z,20.37
2019-03-23T16:35:50.655Z,22.82
2019-03-23T16:37:54.543Z,21.12
2019-03-23T16:39:58.376Z,21.00
2019-03-23T16:42:02.218Z,19.60
2019-03-23T16:44:07.069Z,20.15
2019-03-23T16:46:10.992Z,16.95
2019-03-23T16:48:14.841Z,19.55
2019-03-23T16:50:18.769Z,22.10
2019-03-23T16:52:22.657Z,27.80
2019-03-23T16:54:27.890Z,20.20
2019-03-23T16:56:31.861Z,25.37
2019-03-23T16:58:35.750Z,21.33
2019-03-23T17:00:39.680Z,20.30
2019-03-23T17:02:43.811Z,20.25
2019-03-23T17:04:47.626Z,24.90
2019-03-23T17:06:51.499Z,38.58
2019-03-23T17:08:55.361Z,35.88
2019-03-23T17:10:59.224Z,36.33
2019-03-23T17:13:03.060Z,31.73
2019-03-23T17:15:07.651Z,37.65
2019-03-23T17:17:11.558Z,31.60
2019-03-23T17:19:15.431Z,35.98
2019-03-23T17:21:19.412Z,31.82
2019-03-23T17:23:23.246Z,35.43
2019-03-23T17:25:27.123Z,34.05
2019-03-23T17:27:31.012Z,30.85
2019-03-23T17:29:34.853Z,32.13
2019-03-23T17:31:38.738Z,31.85
2019-03-23T17:33:42.680Z,31.02
2019-03-23T17:35:46.548Z,31.40
2019-03-23T17:37:50.393Z,34.13
2019-03-23T17:39:54.250Z,31.68
2019-03-23T17:41:58.134Z,34.70
2019-03-23T17:44:02.011Z,36.30
2019-03-23T17:46:06.043Z,38.02
2019-03-23T17:48:09.868Z,38.92
2019-03-23T17:50:13.912Z,41.50
2019-03-23T17:52:17.795Z,40.30
2019-03-23T17:54:23.175Z,46.55
2019-03-23T17:56:27.455Z,46.77
2019-03-23T17:58:31.320Z,48.05
2019-03-23T18:00:35.214Z,54.20
2019-03-23T18:02:39.088Z,60.28
2019-03-23T18:04:43.408Z,66.67
2019-03-23T18:06:47.267Z,69.30
2019-03-23T18:08:51.136Z,64.85
2019-03-23T18:10:55.055Z,72.00
2019-03-23T18:12:59.002Z,62.08
2019-03-23T18:15:02.847Z,59.05
2019-03-23T18:17:06.789Z,55.10
2019-03-23T18:19:10.674Z,56.53
2019-03-23T18:21:14.517Z,57.98
2019-03-23T18:23:18.445Z,65.65
2019-03-23T18:25:22.277Z,74.90
2019-03-23T18:27:26.162Z,64.35
2019-03-23T18:29:30.119Z,76.45
2019-03-23T18:31:33.964Z,75.42
2019-03-23T18:33:37.805Z,71.95
2019-03-23T18:35:41.729Z,80.53
2019-03-23T18:37:45.613Z,79.35
2019-03-23T18:39:49.583Z,89.92
2019-03-23T18:41:53.490Z,101.33
2019-03-23T18:43:57.385Z,85.95
2019-03-23T18:46:01.333Z,102.92
2019-03-23T18:48:05.482Z,108.78
2019-03-23T18:50:09.733Z,116.35
2019-03-23T18:52:13.599Z,111.68
2019-03-23T18:54:17.470Z,106.20
2019-03-23T18:56:21.356Z,125.05
2019-03-23T18:58:25.199Z,115.03
2019-03-23T19:00:34.355Z,119.35
2019-03-23T19:02:38.303Z,115.62
2019-03-23T19:04:42.194Z,107.15
2019-03-23T19:06:46.126Z,106.47
2019-03-23T19:08:49.963Z,100.60
2019-03-23T19:10:53.926Z,107.55
2019-03-23T19:12:59.333Z,114.30
2019-03-23T19:15:03.227Z,164.75
2019-03-23T19:17:07.117Z,143.30
2019-03-23T19:19:11.058Z,118.85
2019-03-23T19:21:14.894Z,87.40
2019-03-23T19:23:18.786Z,86.02
2019-03-23T19:25:22.666Z,85.90
2019-03-23T19:27:26.589Z,77.60
2019-03-23T19:29:30.470Z,67.55
2019-03-23T19:31:34.321Z,58.95
2019-03-23T19:33:38.214Z,52.08
2019-03-23T19:35:42.091Z,41.30
2019-03-23T19:37:45.962Z,38.35
2019-03-23T19:39:49.887Z,35.00
2019-03-23T19:41:53.714Z,40.15
2019-03-23T19:43:57.586Z,34.78
2019-03-23T19:46:01.569Z,39.48
2019-03-23T19:48:05.409Z,46.80
2019-03-23T19:50:09.471Z,50.55
2019-03-23T19:52:13.404Z,67.15
2019-03-23T19:54:17.267Z,69.00
2019-03-23T19:56:22.632Z,68.72
2019-03-23T19:58:26.563Z,78.67
2019-03-23T20:00:30.442Z,77.05
2019-03-23T20:02:34.391Z,79.37
2019-03-23T20:04:38.264Z,83.20
2019-03-23T20:06:42.127Z,88.52
2019-03-23T20:08:46.055Z,95.97
2019-03-23T20:10:49.996Z,100.15
2019-03-23T20:12:53.907Z,105.32
2019-03-23T20:14:58.132Z,92.47
2019-03-23T20:17:01.973Z,99.60
2019-03-23T20:19:05.919Z,98.47
2019-03-23T20:21:09.835Z,103.90
2019-03-23T20:23:13.729Z,121.15
2019-03-23T20:25:17.637Z,115.40
2019-03-23T20:27:21.509Z,107.22
2019-03-23T20:29:25.432Z,104.23
2019-03-23T20:31:29.327Z,103.65
2019-03-23T20:33:33.185Z,102.78
2019-03-23T20:35:38.747Z,100.02
2019-03-23T20:37:42.622Z,105.72
2019-03-23T20:39:46.732Z,103.58
2019-03-23T20:41:50.570Z,90.60
2019-03-23T20:43:54.479Z,82.65
2019-03-23T20:45:58.431Z,75.40
2019-03-23T20:48:03.244Z,73.00
2019-03-23T20:50:09.117Z,66.47
2019-03-23T20:52:13.016Z,61.68
2019-03-23T20:54:16.899Z,62.65
2019-03-23T20:56:20.756Z,65.17
2019-03-23T20:58:24.712Z,64.37
2019-03-23T21:00:28.512Z,58.55
2019-03-23T21:02:32.439Z,62.58
2019-03-23T21:04:36.344Z,55.92
2019-03-23T21:06:40.223Z,60.95
2019-03-23T21:08:44.098Z,59.03
2019-03-23T21:10:48.386Z,61.18
2019-03-23T21:12:52.230Z,60.48
2019-03-23T21:14:56.053Z,57.35
2019-03-23T21:17:00.010Z,60.23
2019-03-23T21:19:03.896Z,56.33
2019-03-23T21:21:07.764Z,57.05
2019-03-23T21:23:11.678Z,54.90
2019-03-23T21:25:15.529Z,54.88
2019-03-23T21:27:19.728Z,58.00
2019-03-23T21:29:23.670Z,54.80
2019-03-23T21:31:27.458Z,61.35
2019-03-23T21:33:32.186Z,53.85
2019-03-23T21:35:36.957Z,52.10
2019-03-23T21:37:40.894Z,52.95
2019-03-23T21:39:44.802Z,55.78
2019-03-23T21:41:48.714Z,56.10
2019-03-23T21:43:52.572Z,54.75
2019-03-23T21:45:56.480Z,54.58
2019-03-23T21:48:00.376Z,52.60
2019-03-23T21:50:08.375Z,54.70
2019-03-23T21:52:12.345Z,52.30
2019-03-23T21:54:16.240Z,56.13
2019-03-23T21:56:20.036Z,54.20
2019-03-23T21:58:23.931Z,52.80
2019-03-23T22:00:32.546Z,53.05
2019-03-23T22:02:36.422Z,53.33
2019-03-23T22:04:40.295Z,51.20
2019-03-23T22:06:44.233Z,55.15
2019-03-23T22:08:48.103Z,51.10
2019-03-23T22:10:51.970Z,55.12
2019-03-23T22:12:55.902Z,51.70
2019-03-23T22:14:59.767Z,51.33
2019-03-23T22:17:05.738Z,55.05
2019-03-23T22:19:09.223Z,57.35
2019-03-23T22:21:13.054Z,55.55
2019-03-23T22:23:16.922Z,58.38
2019-03-23T22:25:20.849Z,54.95
2019-03-23T22:27:24.718Z,52.00
2019-03-23T22:29:28.617Z,51.45
2019-03-23T22:31:32.482Z,55.70
2019-03-23T22:33:36.399Z,55.85
2019-03-23T22:35:40.307Z,55.80
2019-03-23T22:37:44.206Z,51.73
2019-03-23T22:39:48.074Z,61.77
2019-03-23T22:41:52.024Z,62.10
2019-03-23T22:43:55.918Z,62.75
2019-03-23T22:45:59.741Z,66.53
2019-03-23T22:48:03.662Z,61.53
2019-03-23T22:50:08.901Z,66.10
2019-03-23T22:52:12.734Z,74.47
2019-03-23T22:54:16.644Z,67.72
2019-03-23T22:56:20.531Z,71.70
2019-03-23T22:58:24.405Z,72.37
2019-03-23T23:00:42.027Z,83.72
2019-03-23T23:02:46.056Z,79.45
2019-03-23T23:04:49.971Z,73.52
2019-03-23T23:06:53.811Z,78.70
2019-03-23T23:08:57.757Z,78.10
2019-03-23T23:11:01.687Z,78.75
2019-03-23T23:13:05.529Z,83.52
2019-03-23T23:15:09.428Z,89.97
2019-03-23T23:17:13.255Z,93.62
2019-03-23T23:19:17.091Z,102.87
2019-03-23T23:21:20.939Z,99.10
2019-03-23T23:23:24.779Z,94.10
2019-03-23T23:25:28.613Z,94.28
2019-03-23T23:27:32.494Z,101.42
2019-03-23T23:29:36.374Z,103.50
2019-03-23T23:31:40.286Z,95.30
2019-03-23T23:33:44.087Z,97.22
2019-03-23T23:35:47.906Z,102.07
2019-03-23T23:37:51.812Z,89.85
2019-03-23T23:39:55.612Z,103.25
2019-03-23T23:41:59.701Z,92.27
2019-03-23T23:44:03.916Z,97.37
2019-03-23T23:46:07.793Z,102.67
2019-03-23T23:48:11.639Z,105.63
2019-03-23T23:50:15.589Z,103.02
2019-03-23T23:52:19.462Z,100.22
2019-03-23T23:54:23.266Z,106.55
2019-03-23T23:56:27.126Z,101.02
2019-03-23T23:58:31.012Z,104.17
